Time,TemperatureF,DewpointF,PressureIn,WindDirection,WindDirectionDegrees,WindSpeedMPH,WindSpeedGustMPH,Humidity,HourlyPrecipIn,Conditions,Clouds,dailyrainin,SoftwareType,DateUTC
2013-11-11 00:04:00,39.2,28.1,30.05,NNW,337,0.0,-999.0,64,-99.99,,,0.00,Acu-Link.com,2013-11-11 05:04:00,
2013-11-11 00:19:00,39.0,28.2,30.06,WSW,247,0.0,-999.0,65,-99.99,,,0.00,Acu-Link.com,2013-11-11 05:19:00,
2013-11-11 00:35:00,38.7,28.3,30.06,WSW,247,0.0,-999.0,66,-99.99,,,0.00,Acu-Link.com,2013-11-11 05:35:00,
2013-11-11 00:50:00,38.1,28.1,30.08,WSW,247,0.0,-999.0,67,-99.99,,,0.00,Acu-Link.com,2013-11-11 05:50:00,
2013-11-11 01:05:00,38.5,28.5,30.09,WSW,247,0.0,-999.0,67,-99.99,,,0.00,Acu-Link.com,2013-11-11 06:05:00,
2013-11-11 01:21:00,38.5,28.5,30.09,WSW,247,0.0,-999.0,67,-99.99,,,0.00,Acu-Link.com,2013-11-11 06:21:00,
2013-11-11 01:36:00,38.1,28.1,30.09,West,270,2.7,-999.0,67,-99.99,,,0.00,Acu-Link.com,2013-11-11 06:36:00,
2013-11-11 01:51:00,38.7,28.3,30.10,West,270,2.2,-999.0,66,-99.99,,,0.00,Acu-Link.com,2013-11-11 06:51:00,
2013-11-11 02:07:00,38.8,28.1,30.09,WNW,292,0.0,-999.0,65,-99.99,,,0.00,Acu-Link.com,2013-11-11 07:07:00,
2013-11-11 02:22:00,37.8,27.8,30.09,WNW,292,0.0,-999.0,67,-99.99,,,0.00,Acu-Link.com,2013-11-11 07:22:00,
2013-11-11 02:37:00,37.0,27.8,30.09,WNW,292,0.0,-999.0,69,-99.99,,,0.00,Acu-Link.com,2013-11-11 07:37:00,
2013-11-11 02:53:00,36.9,27.3,30.09,WNW,292,0.0,-999.0,68,-99.99,,,0.00,Acu-Link.com,2013-11-11 07:53:00,
2013-11-11 03:08:00,36.1,27.3,30.09,WNW,292,0.0,-999.0,70,-99.99,,,0.00,Acu-Link.com,2013-11-11 08:08:00,
2013-11-11 03:23:00,35.1,26.7,30.09,WNW,292,0.0,-999.0,71,-99.99,,,0.00,Acu-Link.com,2013-11-11 08:23:00,
2013-11-11 03:39:00,34.2,26.8,30.09,WNW,292,0.0,-999.0,74,-99.99,,,0.00,Acu-Link.com,2013-11-11 08:39:00,
2013-11-11 03:54:00,33.3,26.2,30.09,WNW,292,0.0,-999.0,75,-99.99,,,0.00,Acu-Link.com,2013-11-11 08:54:00,
2013-11-11 04:09:00,32.5,26.1,30.09,WNW,292,0.0,-999.0,77,-99.99,,,0.00,Acu-Link.com,2013-11-11 09:09:00,
2013-11-11 04:24:00,31.6,25.8,30.10,WNW,292,0.0,-999.0,79,-99.99,,,0.00,Acu-Link.com,2013-11-11 09:24:00,
2013-11-11 04:40:00,30.9,25.5,30.11,WNW,292,0.0,-999.0,80,-99.99,,,0.00,Acu-Link.com,2013-11-11 09:40:00,
2013-11-11 04:55:00,29.8,25.0,30.10,WNW,292,0.0,-999.0,82,-99.99,,,0.00,Acu-Link.com,2013-11-11 09:55:00,
2013-11-11 05:10:00,29.7,25.2,30.10,WNW,292,0.0,-999.0,83,-99.99,,,0.00,Acu-Link.com,2013-11-11 10:10:00,
2013-11-11 05:26:00,29.3,24.8,30.12,WNW,292,0.0,-999.0,83,-99.99,,,0.00,Acu-Link.com,2013-11-11 10:26:00,
2013-11-11 05:41:00,28.8,24.6,30.12,WNW,292,0.0,-999.0,84,-99.99,,,0.00,Acu-Link.com,2013-11-11 10:41:00,
2013-11-11 05:56:00,28.4,24.2,30.13,WNW,292,0.0,-999.0,84,-99.99,,,0.00,Acu-Link.com,2013-11-11 10:56:00,
2013-11-11 06:12:00,28.0,24.1,30.12,WNW,292,0.0,-999.0,85,-99.99,,,0.00,Acu-Link.com,2013-11-11 11:12:00,
2013-11-11 06:27:00,27.7,23.8,30.12,WNW,292,0.0,-999.0,85,-99.99,,,0.00,Acu-Link.com,2013-11-11 11:27:00,
2013-11-11 06:42:00,27.7,23.8,30.12,WNW,292,0.0,-999.0,85,-99.99,,,0.00,Acu-Link.com,2013-11-11 11:42:00,
2013-11-11 06:58:00,27.9,24.3,30.13,WNW,292,0.0,-999.0,86,-99.99,,,0.00,Acu-Link.com,2013-11-11 11:58:00,
2013-11-11 07:13:00,28.2,24.6,30.13,WNW,292,0.0,-999.0,86,-99.99,,,0.00,Acu-Link.com,2013-11-11 12:13:00,
2013-11-11 07:28:00,29.3,25.9,30.13,WNW,292,0.0,-999.0,87,-99.99,,,0.00,Acu-Link.com,2013-11-11 12:28:00,
2013-11-11 07:44:00,30.2,26.5,30.13,WNW,292,0.0,-999.0,86,-99.99,,,0.00,Acu-Link.com,2013-11-11 12:44:00,
2013-11-11 07:59:00,30.7,27.0,30.13,WNW,292,0.0,-999.0,86,-99.99,,,0.00,Acu-Link.com,2013-11-11 12:59:00,
2013-11-11 08:14:00,31.6,27.9,30.12,WNW,292,1.1,-999.0,86,-99.99,,,0.00,Acu-Link.com,2013-11-11 13:14:00,
2013-11-11 08:29:00,33.1,28.8,30.11,NE,45,0.0,-999.0,84,-99.99,,,0.00,Acu-Link.com,2013-11-11 13:29:00,
2013-11-11 08:45:00,34.2,29.6,30.12,NE,45,0.0,-999.0,83,-99.99,,,0.00,Acu-Link.com,2013-11-11 13:45:00,
2013-11-11 09:00:00,35.1,30.5,30.12,NE,45,0.0,-999.0,83,-99.99,,,0.00,Acu-Link.com,2013-11-11 14:00:00,
2013-11-11 09:15:00,35.8,30.9,30.12,NE,45,0.0,-999.0,82,-99.99,,,0.00,Acu-Link.com,2013-11-11 14:15:00,
2013-11-11 09:31:00,37.0,31.1,30.13,NE,45,0.0,-999.0,79,-99.99,,,0.00,Acu-Link.com,2013-11-11 14:31:00,
2013-11-11 09:46:00,39.0,31.8,30.11,NE,45,0.0,-999.0,75,-99.99,,,0.00,Acu-Link.com,2013-11-11 14:46:00,
2013-11-11 10:01:00,41.4,32.0,30.10,NW,315,0.0,-999.0,69,-99.99,,,0.00,Acu-Link.com,2013-11-11 15:01:00,
2013-11-11 10:17:00,43.3,31.6,30.09,ESE,112,2.2,-999.0,63,-99.99,,,0.00,Acu-Link.com,2013-11-11 15:17:00,
2013-11-11 10:32:00,44.8,32.6,30.08,ESE,112,0.0,-999.0,62,-99.99,,,0.00,Acu-Link.com,2013-11-11 15:32:00,
2013-11-11 10:47:00,45.1,32.1,30.08,NNW,337,0.0,-999.0,60,-99.99,,,0.00,Acu-Link.com,2013-11-11 15:47:00,
2013-11-11 11:03:00,45.3,32.2,30.08,West,270,2.7,-999.0,60,-99.99,,,0.00,Acu-Link.com,2013-11-11 16:03:00,
2013-11-11 11:18:00,44.8,32.2,30.07,WNW,292,1.7,-999.0,61,-99.99,,,0.00,Acu-Link.com,2013-11-11 16:18:00,
2013-11-11 11:33:00,45.0,32.4,30.06,WNW,292,0.0,-999.0,61,-99.99,,,0.00,Acu-Link.com,2013-11-11 16:33:00,
2013-11-11 11:48:00,45.3,33.1,30.04,WNW,292,1.7,-999.0,62,-99.99,,,0.00,Acu-Link.com,2013-11-11 16:48:00,
2013-11-11 12:19:00,46.4,33.3,30.01,WNW,292,0.0,-999.0,60,-99.99,,,0.00,Acu-Link.com,2013-11-11 17:19:00,
2013-11-11 12:34:00,47.7,33.2,30.00,ESE,112,0.0,-999.0,57,-99.99,,,0.00,Acu-Link.com,2013-11-11 17:34:00,
2013-11-11 12:49:00,48.0,32.6,29.99,SE,135,1.1,-999.0,55,-99.99,,,0.00,Acu-Link.com,2013-11-11 17:49:00,
2013-11-11 13:04:00,47.7,31.9,29.98,WNW,292,1.1,-999.0,54,-99.99,,,0.00,Acu-Link.com,2013-11-11 18:04:00,
2013-11-11 13:19:00,48.9,33.0,29.96,NE,45,1.7,-999.0,54,-99.99,,,0.00,Acu-Link.com,2013-11-11 18:19:00,
2013-11-11 13:35:00,49.5,32.6,29.96,WSW,247,1.1,-999.0,52,-99.99,,,0.00,Acu-Link.com,2013-11-11 18:35:00,
2013-11-11 13:50:00,49.1,32.2,29.96,South,180,2.7,-999.0,52,-99.99,,,0.00,Acu-Link.com,2013-11-11 18:50:00,
2013-11-11 14:05:00,48.7,31.9,29.96,SSW,202,1.1,-999.0,52,-99.99,,,0.00,Acu-Link.com,2013-11-11 19:05:00,
2013-11-11 14:20:00,48.4,31.6,29.94,SSW,202,1.1,-999.0,52,-99.99,,,0.00,Acu-Link.com,2013-11-11 19:20:00,
2013-11-11 14:36:00,48.4,31.1,29.93,SW,225,2.2,-999.0,51,-99.99,,,0.00,Acu-Link.com,2013-11-11 19:36:00,
2013-11-11 14:51:00,48.2,30.4,29.93,SW,225,0.0,-999.0,50,-99.99,,,0.00,Acu-Link.com,2013-11-11 19:51:00,
2013-11-11 15:06:00,48.4,30.1,29.93,SSW,202,0.0,-999.0,49,-99.99,,,0.00,Acu-Link.com,2013-11-11 20:06:00,
2013-11-11 15:21:00,48.4,30.1,29.92,West,270,3.2,-999.0,49,-99.99,,,0.00,Acu-Link.com,2013-11-11 20:21:00,
2013-11-11 15:37:00,48.2,29.9,29.92,SW,225,1.7,-999.0,49,-99.99,,,0.00,Acu-Link.com,2013-11-11 20:37:00,
2013-11-11 15:52:00,48.0,30.3,29.92,SSW,202,0.0,-999.0,50,-99.99,,,0.00,Acu-Link.com,2013-11-11 20:52:00,
2013-11-11 16:07:00,47.7,30.9,29.91,WSW,247,0.0,-999.0,52,-99.99,,,0.00,Acu-Link.com,2013-11-11 21:07:00,
2013-11-11 16:23:00,47.5,30.8,29.90,East,90,0.0,-999.0,52,-99.99,,,0.00,Acu-Link.com,2013-11-11 21:23:00,
2013-11-11 16:38:00,47.3,30.6,29.90,SW,225,0.0,-999.0,52,-99.99,,,0.00,Acu-Link.com,2013-11-11 21:38:00,
2013-11-11 16:53:00,46.9,30.7,29.89,ESE,112,0.0,-999.0,53,-99.99,,,0.00,Acu-Link.com,2013-11-11 21:53:00,
2013-11-11 17:08:00,46.8,31.0,29.89,SW,225,0.0,-999.0,54,-99.99,,,0.00,Acu-Link.com,2013-11-11 22:08:00,
2013-11-11 17:24:00,46.6,31.3,29.89,SW,225,0.0,-999.0,55,-99.99,,,0.00,Acu-Link.com,2013-11-11 22:24:00,
2013-11-11 17:39:00,46.4,31.6,29.89,South,180,0.0,-999.0,56,-99.99,,,0.00,Acu-Link.com,2013-11-11 22:39:00,
2013-11-11 17:54:00,46.6,31.3,29.89,SW,225,0.0,-999.0,55,-99.99,,,0.00,Acu-Link.com,2013-11-11 22:54:00,
2013-11-11 18:09:00,46.6,31.8,29.89,SW,225,0.0,-999.0,56,-99.99,,,0.00,Acu-Link.com,2013-11-11 23:09:00,
2013-11-11 18:25:00,46.4,31.6,29.89,SW,225,0.0,-999.0,56,-99.99,,,0.00,Acu-Link.com,2013-11-11 23:25:00,
2013-11-11 18:40:00,46.2,31.8,29.89,SW,225,0.0,-999.0,57,-99.99,,,0.00,Acu-Link.com,2013-11-11 23:40:00,
2013-11-11 18:55:00,46.0,32.1,29.89,SW,225,0.0,-999.0,58,-99.99,,,0.00,Acu-Link.com,2013-11-11 23:55:00,
2013-11-11 19:11:00,45.7,32.2,29.89,SW,225,0.0,-999.0,59,-99.99,,,0.00,Acu-Link.com,2013-11-12 00:11:00,
2013-11-11 19:26:00,45.5,32.0,29.88,SW,225,0.0,-999.0,59,-99.99,,,0.00,Acu-Link.com,2013-11-12 00:26:00,
2013-11-11 19:41:00,45.3,32.7,29.88,SW,225,0.0,-999.0,61,-99.99,,,0.00,Acu-Link.com,2013-11-12 00:41:00,
2013-11-11 19:57:00,45.3,33.1,29.87,SW,225,0.0,-999.0,62,-99.99,,,0.00,Acu-Link.com,2013-11-12 00:57:00,
2013-11-11 20:12:00,45.1,32.9,29.88,SW,225,0.0,-999.0,62,-99.99,,,0.00,Acu-Link.com,2013-11-12 01:12:00,
2013-11-11 20:27:00,45.0,32.4,29.87,SW,225,0.0,-999.0,61,-99.99,,,0.00,Acu-Link.com,2013-11-12 01:27:00,
2013-11-11 20:42:00,44.8,33.0,29.87,SW,225,0.0,-999.0,63,-99.99,,,0.00,Acu-Link.com,2013-11-12 01:42:00,
2013-11-11 20:57:00,44.6,34.0,29.88,SW,225,0.0,-999.0,66,-99.99,,,0.00,Acu-Link.com,2013-11-12 01:57:00,
2013-11-11 21:13:00,44.4,33.8,29.87,SW,225,0.0,-999.0,66,-99.99,,,0.00,Acu-Link.com,2013-11-12 02:13:00,
2013-11-11 21:28:00,44.2,33.6,29.87,SW,225,0.0,-999.0,66,-99.99,,,0.00,Acu-Link.com,2013-11-12 02:28:00,
2013-11-11 21:43:00,44.8,30.9,29.87,SW,225,1.1,-999.0,58,-99.99,,,0.00,Acu-Link.com,2013-11-12 02:43:00,
2013-11-11 21:59:00,46.0,29.8,29.87,West,270,0.0,-999.0,53,-99.99,,,0.00,Acu-Link.com,2013-11-12 02:59:00,
2013-11-11 22:14:00,48.2,29.4,29.88,West,270,4.2,-999.0,48,-99.99,,,0.00,Acu-Link.com,2013-11-12 03:14:00,
2013-11-11 22:29:00,48.7,29.9,29.87,West,270,2.7,-999.0,48,-99.99,,,0.00,Acu-Link.com,2013-11-12 03:29:00,
2013-11-11 22:44:00,48.4,31.1,29.87,WNW,292,4.2,-999.0,51,-99.99,,,0.00,Acu-Link.com,2013-11-12 03:44:00,
2013-11-11 23:00:00,48.0,31.7,29.87,West,270,3.7,-999.0,53,-99.99,,,0.00,Acu-Link.com,2013-11-12 04:00:00,
2013-11-11 23:15:00,47.7,32.3,29.89,West,270,4.2,-999.0,55,-99.99,,,0.00,Acu-Link.com,2013-11-12 04:15:00,
2013-11-11 23:30:00,47.1,32.2,29.89,West,270,3.2,-999.0,56,-99.99,,,0.00,Acu-Link.com,2013-11-12 04:30:00,
2013-11-11 23:45:00,46.9,32.5,29.89,West,270,1.7,-999.0,57,-99.99,,,0.00,Acu-Link.com,2013-11-12 04:45:00,